sensor_id;sensor_type;location;lat;lon;timestamp;pressure;altitude;pressure_sealevel;temperature;humidity
44992;BME280;56865;51.618;7.406;2023-02-16T02:56:14;101578.72;;;10.18;100.00
44992;BME280;56865;51.618;7.406;2023-02-16T05:57:24;101531.59;;;11.57;100.00
44992;BME280;56865;51.618;7.406;2023-02-16T05:59:55;101541.47;;;11.47;100.00
44992;BME280;56865;51.618;7.406;2023-02-16T06:02:26;101548.91;;;11.64;100.00
44992;BME280;56865;51.618;7.406;2023-02-16T06:04:56;101543.84;;;11.43;100.00
44992;BME280;56865;51.618;7.406;2023-02-16T06:07:27;101545.22;;;11.34;100.00
44992;BME280;56865;51.618;7.406;2023-02-16T06:10:04;101551.44;;;11.86;100.00
44992;BME280;56865;51.618;7.406;2023-02-16T06:12:38;101549.88;;;11.67;100.00
44992;BME280;56865;51.618;7.406;2023-02-16T06:15:11;101552.19;;;11.84;100.00
44992;BME280;56865;51.618;7.406;2023-02-16T06:17:41;101557.84;;;11.52;100.00
44992;BME280;56865;51.618;7.406;2023-02-16T06:20:12;101554.88;;;11.42;100.00
44992;BME280;56865;51.618;7.406;2023-02-16T06:22:47;101550.16;;;11.98;100.00
44992;BME280;56865;51.618;7.406;2023-02-16T06:25:18;101550.72;;;11.91;100.00
44992;BME280;56865;51.618;7.406;2023-02-16T06:27:51;101555.56;;;11.60;100.00
44992;BME280;56865;51.618;7.406;2023-02-16T06:30:23;101556.94;;;11.52;100.00
44992;BME280;56865;51.618;7.406;2023-02-16T06:32:54;101546.06;;;11.56;100.00
44992;BME280;56865;51.618;7.406;2023-02-16T06:35:25;101545.97;;;11.77;100.00
44992;BME280;56865;51.618;7.406;2023-02-16T06:37:56;101553.22;;;12.12;100.00
44992;BME280;56865;51.618;7.406;2023-02-16T06:40:26;101545.63;;;12.15;100.00
44992;BME280;56865;51.618;7.406;2023-02-16T06:43:00;101548.69;;;12.05;100.00
44992;BME280;56865;51.618;7.406;2023-02-16T06:45:31;101552.72;;;12.22;100.00
44992;BME280;56865;51.618;7.406;2023-02-16T06:48:01;101541.88;;;12.29;100.00
44992;BME280;56865;51.618;7.406;2023-02-16T06:50:38;101544.72;;;12.13;100.00
44992;BME280;56865;51.618;7.406;2023-02-16T06:53:10;101544.59;;;12.34;100.00
44992;BME280;56865;51.618;7.406;2023-02-16T06:55:42;101552.84;;;12.25;100.00
44992;BME280;56865;51.618;7.406;2023-02-16T06:58:19;101559.91;;;11.85;100.00
44992;BME280;56865;51.618;7.406;2023-02-16T07:00:53;101556.78;;;12.17;100.00
44992;BME280;56865;51.618;7.406;2023-02-16T07:03:32;101547.22;;;12.35;100.00
44992;BME280;56865;51.618;7.406;2023-02-16T07:06:06;101547.31;;;12.39;100.00
44992;BME280;56865;51.618;7.406;2023-02-16T07:08:37;101539.50;;;12.34;100.00
44992;BME280;56865;51.618;7.406;2023-02-16T07:11:09;101550.31;;;12.27;100.00
44992;BME280;56865;51.618;7.406;2023-02-16T07:13:44;101544.03;;;12.68;100.00
44992;BME280;56865;51.618;7.406;2023-02-16T07:16:16;101547.69;;;12.49;100.00
44992;BME280;56865;51.618;7.406;2023-02-16T07:18:51;101549.03;;;12.40;100.00
44992;BME280;56865;51.618;7.406;2023-02-16T07:21:26;101553.25;;;12.63;100.00
44992;BME280;56865;51.618;7.406;2023-02-16T07:23:58;101554.25;;;12.94;100.00
44992;BME280;56865;51.618;7.406;2023-02-16T07:26:31;101555.97;;;12.95;100.00
44992;BME280;56865;51.618;7.406;2023-02-16T07:29:07;101562.31;;;13.07;100.00
44992;BME280;56865;51.618;7.406;2023-02-16T07:31:38;101557.69;;;12.69;100.00
44992;BME280;56865;51.618;7.406;2023-02-16T07:34:13;101564.50;;;12.43;100.00
44992;BME280;56865;51.618;7.406;2023-02-16T07:36:47;101550.38;;;12.80;100.00
44992;BME280;56865;51.618;7.406;2023-02-16T07:39:18;101554.97;;;12.90;100.00
44992;BME280;56865;51.618;7.406;2023-02-16T07:41:51;101561.97;;;12.96;100.00
44992;BME280;56865;51.618;7.406;2023-02-16T07:44:26;101554.06;;;12.88;100.00
44992;BME280;56865;51.618;7.406;2023-02-16T07:46:59;101553.47;;;12.70;100.00
44992;BME280;56865;51.618;7.406;2023-02-16T07:49:36;101550.53;;;12.84;100.00
44992;BME280;56865;51.618;7.406;2023-02-16T07:52:09;101559.66;;;13.04;100.00
44992;BME280;56865;51.618;7.406;2023-02-16T07:54:47;101553.28;;;13.18;100.00
44992;BME280;56865;51.618;7.406;2023-02-16T07:57:21;101547.09;;;13.37;100.00
44992;BME280;56865;51.618;7.406;2023-02-16T08:00:02;101539.28;;;13.36;100.00
44992;BME280;56865;51.618;7.406;2023-02-16T08:02:36;101542.88;;;13.41;100.00
44992;BME280;56865;51.618;7.406;2023-02-16T08:05:16;101533.91;;;13.26;100.00
44992;BME280;56865;51.618;7.406;2023-02-16T08:07:55;101530.38;;;13.50;100.00
44992;BME280;56865;51.618;7.406;2023-02-16T08:10:30;101532.75;;;13.16;100.00
44992;BME280;56865;51.618;7.406;2023-02-16T08:13:09;101527.38;;;12.81;100.00
44992;BME280;56865;51.618;7.406;2023-02-16T08:15:50;101541.72;;;13.02;100.00
44992;BME280;56865;51.618;7.406;2023-02-16T08:18:26;101542.03;;;13.13;100.00
44992;BME280;56865;51.618;7.406;2023-02-16T08:21:05;101536.81;;;12.82;100.00
44992;BME280;56865;51.618;7.406;2023-02-16T08:23:51;101547.69;;;13.03;100.00
44992;BME280;56865;51.618;7.406;2023-02-16T08:26:28;101547.34;;;13.19;100.00
44992;BME280;56865;51.618;7.406;2023-02-16T08:29:02;101551.44;;;12.87;100.00
44992;BME280;56865;51.618;7.406;2023-02-16T08:31:44;101551.00;;;13.00;100.00
44992;BME280;56865;51.618;7.406;2023-02-16T08:37:09;101560.28;;;12.96;100.00
44992;BME280;56865;51.618;7.406;2023-02-16T08:39:48;101563.50;;;13.18;100.00
44992;BME280;56865;51.618;7.406;2023-02-16T08:42:23;101569.03;;;13.58;100.00
44992;BME280;56865;51.618;7.406;2023-02-16T08:45:02;101563.47;;;13.73;100.00
44992;BME280;56865;51.618;7.406;2023-02-16T08:47:50;101571.38;;;13.80;100.00
44992;BME280;56865;51.618;7.406;2023-02-16T08:50:37;101564.72;;;14.18;100.00
44992;BME280;56865;51.618;7.406;2023-02-16T08:53:22;101561.91;;;14.08;100.00
44992;BME280;56865;51.618;7.406;2023-02-16T08:56:12;101551.31;;;14.28;100.00
44992;BME280;56865;51.618;7.406;2023-02-16T08:59:00;101557.34;;;14.30;100.00
44992;BME280;56865;51.618;7.406;2023-02-16T09:01:37;101559.16;;;14.33;100.00
44992;BME280;56865;51.618;7.406;2023-02-16T09:07:04;101554.88;;;14.33;100.00
44992;BME280;56865;51.618;7.406;2023-02-16T09:09:47;101558.91;;;14.57;100.00
44992;BME280;56865;51.618;7.406;2023-02-16T09:12:36;101551.38;;;14.63;100.00
44992;BME280;56865;51.618;7.406;2023-02-16T09:15:35;101558.63;;;14.12;100.00
44992;BME280;56865;51.618;7.406;2023-02-16T09:18:32;101562.94;;;14.81;100.00
44992;BME280;56865;51.618;7.406;2023-02-16T09:21:29;101557.16;;;14.89;100.00
44992;BME280;56865;51.618;7.406;2023-02-16T09:27:43;101557.22;;;15.29;100.00
44992;BME280;56865;51.618;7.406;2023-02-16T09:34:08;101554.56;;;15.66;100.00
44992;BME280;56865;51.618;7.406;2023-02-16T09:50:02;101575.53;;;15.44;100.00
44992;BME280;56865;51.618;7.406;2023-02-16T09:56:44;101571.72;;;15.67;100.00
44992;BME280;56865;51.618;7.406;2023-02-16T09:59:51;101578.25;;;15.13;98.94
44992;BME280;56865;51.618;7.406;2023-02-16T10:03:04;101584.53;;;15.64;99.61
44992;BME280;56865;51.618;7.406;2023-02-16T10:26:57;101587.81;;;15.18;98.25
44992;BME280;56865;51.618;7.406;2023-02-16T10:33:44;101588.97;;;16.14;100.00
44992;BME280;56865;51.618;7.406;2023-02-16T10:37:09;101586.06;;;15.97;100.00
44992;BME280;56865;51.618;7.406;2023-02-16T13:16:47;101505.06;;;18.00;100.00
44992;BME280;56865;51.618;7.406;2023-02-16T14:13:53;101414.94;;;17.37;100.00
44992;BME280;56865;51.618;7.406;2023-02-16T14:40:08;101412.28;;;17.29;100.00
44992;BME280;56865;51.618;7.406;2023-02-16T16:09:52;101337.34;;;17.09;100.00
44992;BME280;56865;51.618;7.406;2023-02-16T16:15:59;101336.84;;;17.43;100.00
44992;BME280;56865;51.618;7.406;2023-02-16T17:51:25;101295.34;;;17.16;100.00
44992;BME280;56865;51.618;7.406;2023-02-16T17:54:48;101290.19;;;17.18;100.00
44992;BME280;56865;51.618;7.406;2023-02-16T17:58:12;101299.59;;;17.11;100.00
44992;BME280;56865;51.618;7.406;2023-02-16T18:01:24;101300.16;;;16.88;100.00
44992;BME280;56865;51.618;7.406;2023-02-16T18:17:21;101299.97;;;17.48;100.00
44992;BME280;56865;51.618;7.406;2023-02-16T18:19:56;101293.09;;;17.52;100.00
44992;BME280;56865;51.618;7.406;2023-02-16T18:25:56;101303.66;;;17.81;100.00
44992;BME280;56865;51.618;7.406;2023-02-16T18:28:42;101306.63;;;17.28;100.00
44992;BME280;56865;51.618;7.406;2023-02-16T18:31:32;101295.34;;;17.16;100.00
44992;BME280;56865;51.618;7.406;2023-02-16T18:34:35;101292.81;;;17.21;100.00
44992;BME280;56865;51.618;7.406;2023-02-16T18:37:13;101294.69;;;17.39;100.00
44992;BME280;56865;51.618;7.406;2023-02-16T18:43:52;101295.47;;;17.30;100.00
44992;BME280;56865;51.618;7.406;2023-02-16T18:46:27;101277.38;;;17.24;100.00
44992;BME280;56865;51.618;7.406;2023-02-16T18:49:46;101283.50;;;17.37;100.00
44992;BME280;56865;51.618;7.406;2023-02-16T18:52:50;101292.03;;;17.28;100.00
44992;BME280;56865;51.618;7.406;2023-02-16T19:04:55;101287.00;;;16.64;100.00
44992;BME280;56865;51.618;7.406;2023-02-16T19:11:06;101291.16;;;16.54;100.00
44992;BME280;56865;51.618;7.406;2023-02-16T19:14:47;101283.69;;;16.74;100.00
44992;BME280;56865;51.618;7.406;2023-02-16T19:20:46;101291.47;;;16.79;100.00
44992;BME280;56865;51.618;7.406;2023-02-16T19:27:20;101308.03;;;16.32;100.00
44992;BME280;56865;51.618;7.406;2023-02-16T19:30:26;101295.44;;;16.53;100.00
44992;BME280;56865;51.618;7.406;2023-02-16T19:33:22;101314.81;;;16.27;100.00
44992;BME280;56865;51.618;7.406;2023-02-16T19:36:39;101306.94;;;16.17;100.00
44992;BME280;56865;51.618;7.406;2023-02-16T19:39:50;101305.72;;;15.92;100.00
44992;BME280;56865;51.618;7.406;2023-02-16T19:42:49;101292.97;;;15.46;100.00
44992;BME280;56865;51.618;7.406;2023-02-16T19:45:24;101297.75;;;15.76;100.00
44992;BME280;56865;51.618;7.406;2023-02-16T19:48:22;101304.34;;;15.62;100.00
44992;BME280;56865;51.618;7.406;2023-02-16T19:51:25;101290.97;;;15.30;100.00
44992;BME280;56865;51.618;7.406;2023-02-16T19:54:30;101290.06;;;15.27;100.00
44992;BME280;56865;51.618;7.406;2023-02-16T19:57:16;101292.41;;;15.66;100.00
44992;BME280;56865;51.618;7.406;2023-02-16T20:09:53;101375.94;;;16.41;100.00
44992;BME280;56865;51.618;7.406;2023-02-16T20:13:09;101311.13;;;16.70;100.00
44992;BME280;56865;51.618;7.406;2023-02-16T20:15:59;101280.06;;;16.58;100.00
44992;BME280;56865;51.618;7.406;2023-02-16T20:18:49;101290.78;;;16.24;100.00
44992;BME280;56865;51.618;7.406;2023-02-16T20:21:40;101269.72;;;16.53;100.00
44992;BME280;56865;51.618;7.406;2023-02-16T20:24:34;101271.09;;;16.27;100.00
44992;BME280;56865;51.618;7.406;2023-02-16T20:27:28;101256.13;;;15.99;100.00
44992;BME280;56865;51.618;7.406;2023-02-16T20:30:37;101257.59;;;16.45;100.00
44992;BME280;56865;51.618;7.406;2023-02-16T20:34:00;101272.94;;;16.38;100.00
44992;BME280;56865;51.618;7.406;2023-02-16T20:36:52;101270.50;;;16.48;100.00
44992;BME280;56865;51.618;7.406;2023-02-16T20:43:06;101270.25;;;16.29;100.00
44992;BME280;56865;51.618;7.406;2023-02-16T20:46:22;101264.94;;;16.15;100.00
44992;BME280;56865;51.618;7.406;2023-02-16T20:49:14;101261.25;;;15.96;100.00
44992;BME280;56865;51.618;7.406;2023-02-16T20:52:26;101267.44;;;17.66;100.00
44992;BME280;56865;51.618;7.406;2023-02-16T20:55:20;101274.47;;;17.85;100.00
44992;BME280;56865;51.618;7.406;2023-02-16T21:05:30;101271.44;;;17.31;100.00
44992;BME280;56865;51.618;7.406;2023-02-16T21:11:43;101287.13;;;16.73;100.00
44992;BME280;56865;51.618;7.406;2023-02-16T21:14:53;101258.44;;;17.17;100.00
44992;BME280;56865;51.618;7.406;2023-02-16T21:17:45;101257.75;;;17.37;100.00
44992;BME280;56865;51.618;7.406;2023-02-16T21:20:48;101261.97;;;17.30;100.00
44992;BME280;56865;51.618;7.406;2023-02-16T21:23:34;101267.38;;;17.58;100.00
44992;BME280;56865;51.618;7.406;2023-02-16T21:26:12;101270.78;;;17.55;100.00
44992;BME280;56865;51.618;7.406;2023-02-16T21:29:15;101271.69;;;17.58;100.00
44992;BME280;56865;51.618;7.406;2023-02-16T22:54:01;101221.50;;;15.23;100.00
44992;BME280;56865;51.618;7.406;2023-02-16T22:57:30;101196.38;;;15.59;100.00
44992;BME280;56865;51.618;7.406;2023-02-16T23:00:32;101198.66;;;15.96;100.00
44992;BME280;56865;51.618;7.406;2023-02-16T23:03:44;101193.00;;;16.21;100.00
44992;BME280;56865;51.618;7.406;2023-02-16T23:21:41;101199.81;;;15.59;100.00
44992;BME280;56865;51.618;7.406;2023-02-16T23:35:21;101200.47;;;16.04;100.00
